Time;durP1;ratioP1;P1;durP2;ratioP2;P2;SDS_P1;SDS_P2;PMS_P1;PMS_P2;Temp;Humidity;BMP_temperature;BMP_pressure;BME280_temperature;BME280_humidity;BME280_pressure;Samples;Min_cycle;Max_cycle;Signal;HPM_P1;HPM_P2
2022/03/21 00:09:33;;;;;;;19.8;32.8;;;;;;;-3.3;58.6;101090;;;;
2022/03/21 00:20:33;;;;;;;25.3;45.1;;;;;;;-3.5;58.5;101080;;;;
2022/03/21 00:30:34;;;;;;;25.3;45.1;;;;;;;-3.6;59;101070;;;;
2022/03/21 00:41:34;;;;;;;25.3;45.1;;;;;;;-3.7;58.9;101070;;;;
2022/03/21 00:52:34;;;;;;;23.9;45.6;;;;;;;-3.8;60.4;101060;;;;
2022/03/21 01:02:33;;;;;;;23.9;45.6;;;;;;;-4;60.5;101060;;;;
2022/03/21 01:13:35;;;;;;;23.9;45.6;;;;;;;-4.1;61.5;101050;;;;
2022/03/21 01:23:33;;;;;;;25.3;41.1;;;;;;;-4.1;62.3;101050;;;;
2022/03/21 01:34:33;;;;;;;25.3;41.1;;;;;;;-4.3;62;101040;;;;
2022/03/21 01:44:33;;;;;;;23.4;44.1;;;;;;;-4.4;62.7;101040;;;;
2022/03/21 02:05:33;;;;;;;23.4;44.1;;;;;;;-4.6;63.2;101040;;;;
2022/03/21 02:15:34;;;;;;;22.2;36.7;;;;;;;-4.6;64.3;101040;;;;
2022/03/21 02:25:34;;;;;;;22.2;36.7;;;;;;;-4.7;64;101040;;;;
2022/03/21 02:36:33;;;;;;;22.2;36.7;;;;;;;-4.8;64.4;101040;;;;
2022/03/21 02:46:33;;;;;;;23.8;41.1;;;;;;;-4.8;64.3;101050;;;;
2022/03/21 02:56:33;;;;;;;23.8;41.1;;;;;;;-4.9;64.1;101050;;;;
2022/03/21 03:07:34;;;;;;;23.8;41.1;;;;;;;-5;64.4;101050;;;;
2022/03/21 03:17:33;;;;;;;21.8;40.4;;;;;;;-5;65.6;101050;;;;
2022/03/21 03:27:33;;;;;;;21.8;40.4;;;;;;;-4.9;65;101060;;;;
2022/03/21 03:38:33;;;;;;;21.8;40.4;;;;;;;-5;65.8;101060;;;;
2022/03/21 03:49:33;;;;;;;24.4;45;;;;;;;-5;65.3;101060;;;;
2022/03/21 03:59:33;;;;;;;24.4;45;;;;;;;-5.1;65.6;101050;;;;
2022/03/21 04:10:33;;;;;;;24.4;45;;;;;;;-5;66.1;101060;;;;
2022/03/21 04:20:36;;;;;;;22;40.4;;;;;;;-5;66.1;101070;;;;
2022/03/21 04:30:33;;;;;;;22;40.4;;;;;;;-5;66.4;101060;;;;
2022/03/21 04:41:33;;;;;;;22;40.4;;;;;;;-5;65.9;101060;;;;
2022/03/21 04:51:33;;;;;;;23.2;40.6;;;;;;;-5;66;101070;;;;
2022/03/21 05:01:33;;;;;;;23.2;40.6;;;;;;;-5;65.7;101070;;;;
2022/03/21 05:12:33;;;;;;;23.2;40.6;;;;;;;-4.8;66.5;101070;;;;
2022/03/21 05:22:33;;;;;;;20.2;34.6;;;;;;;-4.5;66.1;101080;;;;
2022/03/21 05:32:33;;;;;;;20.2;34.6;;;;;;;-4.3;65.3;101090;;;;
2022/03/21 05:43:33;;;;;;;21.6;38.3;;;;;;;-3.9;65.2;101100;;;;
2022/03/21 05:54:34;;;;;;;21.6;38.3;;;;;;;-3.3;64.9;101110;;;;
2022/03/21 06:05:34;;;;;;;21.6;38.3;;;;;;;-2.7;63.7;101120;;;;
2022/03/21 06:15:33;;;;;;;28.3;39.8;;;;;;;-2.1;63.2;101110;;;;
2022/03/21 06:25:33;;;;;;;28.3;39.8;;;;;;;-1.5;61.1;101120;;;;
2022/03/21 06:36:33;;;;;;;28.3;39.8;;;;;;;-0.9;60.4;101110;;;;
2022/03/21 06:47:33;;;;;;;38.1;49.3;;;;;;;0;58.7;101120;;;;
2022/03/21 06:57:33;;;;;;;38.1;49.3;;;;;;;0.5;57.7;101120;;;;
2022/03/21 07:08:33;;;;;;;38.1;49.3;;;;;;;1.2;54.9;101130;;;;
2022/03/21 07:18:33;;;;;;;44.1;56;;;;;;;1.6;54.6;101120;;;;
2022/03/21 07:29:33;;;;;;;44.1;56;;;;;;;2.3;52.2;101120;;;;
2022/03/21 07:40:33;;;;;;;44.1;56;;;;;;;3;51;101130;;;;
2022/03/21 07:51:33;;;;;;;43.1;56.8;;;;;;;3.5;48.7;101130;;;;
2022/03/21 08:02:35;;;;;;;43.1;56.8;;;;;;;4.2;47.2;101140;;;;
2022/03/21 08:12:34;;;;;;;36.7;45.7;;;;;;;4.8;45.9;101130;;;;
2022/03/21 08:23:34;;;;;;;36.7;45.7;;;;;;;5.4;44.2;101120;;;;
2022/03/21 08:33:33;;;;;;;36.7;45.7;;;;;;;5.8;43.7;101110;;;;
2022/03/21 08:43:33;;;;;;;35.1;41;;;;;;;6.3;42.6;101110;;;;
2022/03/21 08:54:33;;;;;;;35.1;41;;;;;;;6.6;41.5;101100;;;;
2022/03/21 09:05:33;;;;;;;35.1;41;;;;;;;7.1;40.5;101100;;;;
2022/03/21 09:15:34;;;;;;;126.6;147.4;;;;;;;7.3;40.1;101090;;;;
2022/03/21 09:25:34;;;;;;;126.6;147.4;;;;;;;7.9;38.5;101090;;;;
2022/03/21 09:36:33;;;;;;;126.6;147.4;;;;;;;8.4;38.7;101080;;;;
2022/03/21 09:48:37;;;;;;;36.2;45.6;;;;;;;8.6;36.6;101070;;;;
2022/03/21 09:58:33;;;;;;;36.2;45.6;;;;;;;9.1;36.1;101060;;;;
2022/03/21 10:09:33;;;;;;;36.2;45.6;;;;;;;9.4;35.4;101050;;;;
2022/03/21 10:20:33;;;;;;;19.6;26.5;;;;;;;9.4;34.7;101040;;;;
2022/03/21 10:31:33;;;;;;;19.6;26.5;;;;;;;9.8;34.3;101020;;;;
2022/03/21 10:41:34;;;;;;;19.6;26.5;;;;;;;9.9;33.8;101020;;;;
2022/03/21 10:51:33;;;;;;;14.4;17.9;;;;;;;10.4;33.1;101000;;;;
2022/03/21 11:02:33;;;;;;;14.4;17.9;;;;;;;10.4;33.6;101000;;;;
2022/03/21 11:12:33;;;;;;;11.5;14.4;;;;;;;10.8;32.2;100980;;;;
2022/03/21 11:22:33;;;;;;;11.5;14.4;;;;;;;10.7;31.2;100970;;;;
2022/03/21 11:32:33;;;;;;;11.5;14.4;;;;;;;11.1;31.1;100960;;;;
2022/03/21 11:42:34;;;;;;;7.7;11.5;;;;;;;11.4;30.6;100940;;;;
2022/03/21 11:53:33;;;;;;;7.7;11.5;;;;;;;11.4;31.6;100940;;;;
2022/03/21 12:03:33;;;;;;;7.7;11.5;;;;;;;11.6;29.9;100920;;;;
2022/03/21 12:13:33;;;;;;;6.2;10.1;;;;;;;11.8;29;100910;;;;
2022/03/21 12:23:33;;;;;;;6.2;10.1;;;;;;;12;28.7;100890;;;;
2022/03/21 12:34:33;;;;;;;6.2;10.1;;;;;;;12.1;29.4;100880;;;;
2022/03/21 12:44:34;;;;;;;6.5;11.3;;;;;;;12.1;29.8;100880;;;;
2022/03/21 12:54:33;;;;;;;6.5;11.3;;;;;;;12.2;28.9;100860;;;;
2022/03/21 13:15:35;;;;;;;5.8;9.4;;;;;;;12.2;28.3;100850;;;;
2022/03/21 13:26:33;;;;;;;5.8;9.4;;;;;;;12.4;27.9;100830;;;;
2022/03/21 13:37:33;;;;;;;5.8;9.4;;;;;;;12.6;27.1;100830;;;;
2022/03/21 13:47:33;;;;;;;20.3;24.8;;;;;;;12.8;27.2;100830;;;;
2022/03/21 13:57:33;;;;;;;20.3;24.8;;;;;;;12.8;26.5;100820;;;;
2022/03/21 14:08:33;;;;;;;20.3;24.8;;;;;;;12.6;26.4;100810;;;;
2022/03/21 14:19:34;;;;;;;6.3;10.5;;;;;;;12.7;27;100810;;;;
2022/03/21 14:30:33;;;;;;;6.3;10.5;;;;;;;12.7;26;100790;;;;
2022/03/21 14:40:33;;;;;;;6.3;10.5;;;;;;;12.7;25.3;100790;;;;
2022/03/21 14:51:34;;;;;;;10.9;14.5;;;;;;;12.9;26.2;100770;;;;
2022/03/21 15:02:33;;;;;;;10.9;14.5;;;;;;;12.8;25.5;100770;;;;
2022/03/21 15:12:33;;;;;;;13.5;20.5;;;;;;;12.8;25.4;100760;;;;
2022/03/21 15:23:36;;;;;;;13.5;20.5;;;;;;;12.7;25.6;100760;;;;
2022/03/21 15:33:33;;;;;;;13.5;20.5;;;;;;;13.1;25.8;100760;;;;
2022/03/21 15:43:33;;;;;;;7.6;13.9;;;;;;;14.8;23.7;100760;;;;
2022/03/21 15:53:33;;;;;;;7.6;13.9;;;;;;;15.5;23.2;100770;;;;
2022/03/21 16:04:35;;;;;;;7.6;13.9;;;;;;;15.4;23.3;100760;;;;
2022/03/21 16:14:33;;;;;;;8.7;12.6;;;;;;;14.5;23.9;100760;;;;
2022/03/21 16:24:33;;;;;;;8.7;12.6;;;;;;;13.9;24.7;100770;;;;
2022/03/21 16:35:33;;;;;;;8.7;12.6;;;;;;;11.9;28.9;100770;;;;
2022/03/21 16:45:34;;;;;;;15.6;20.1;;;;;;;11;30.7;100770;;;;
2022/03/21 16:56:34;;;;;;;15.6;20.1;;;;;;;10.2;32.8;100770;;;;
2022/03/21 17:06:34;;;;;;;15.6;20.1;;;;;;;9.6;33.2;100770;;;;
2022/03/21 17:16:33;;;;;;;21.8;27.5;;;;;;;9.2;33.7;100780;;;;
2022/03/21 17:26:33;;;;;;;21.8;27.5;;;;;;;8.7;34.5;100780;;;;
2022/03/21 17:37:33;;;;;;;21.8;27.5;;;;;;;8.3;36;100790;;;;
2022/03/21 17:47:33;;;;;;;15.6;19.9;;;;;;;7.9;36.8;100780;;;;
2022/03/21 17:57:34;;;;;;;15.6;19.9;;;;;;;7.6;37;100780;;;;
2022/03/21 18:07:33;;;;;;;15.6;19.9;;;;;;;7.1;37;100790;;;;
2022/03/21 18:18:33;;;;;;;22.6;26.4;;;;;;;6.5;38.7;100800;;;;
2022/03/21 18:28:33;;;;;;;22.6;26.4;;;;;;;6.1;40.4;100800;;;;
2022/03/21 18:38:34;;;;;;;22.6;26.4;;;;;;;5.6;40;100810;;;;
2022/03/21 18:48:33;;;;;;;29.6;35;;;;;;;5;41.8;100810;;;;
2022/03/21 18:59:34;;;;;;;29.6;35;;;;;;;4.7;42.2;100810;;;;
2022/03/21 19:09:33;;;;;;;29.6;35;;;;;;;4.7;41.9;100810;;;;
2022/03/21 19:19:36;;;;;;;40.4;48.3;;;;;;;4.6;42.3;100820;;;;
2022/03/21 19:29:34;;;;;;;40.4;48.3;;;;;;;4.9;40.9;100830;;;;
2022/03/21 19:40:35;;;;;;;40.4;48.3;;;;;;;4.8;41;100840;;;;
2022/03/21 19:50:33;;;;;;;33.1;40.4;;;;;;;4.6;40.9;100850;;;;
2022/03/21 20:00:34;;;;;;;33.1;40.4;;;;;;;4.2;41.3;100850;;;;
2022/03/21 20:11:33;;;;;;;55.8;72.1;;;;;;;3.8;42.1;100840;;;;
2022/03/21 20:21:34;;;;;;;55.8;72.1;;;;;;;3.4;43.4;100850;;;;
2022/03/21 20:32:38;;;;;;;55.8;72.1;;;;;;;3.1;43;100850;;;;
2022/03/21 20:43:36;;;;;;;61.7;81;;;;;;;2.6;44.5;100850;;;;
2022/03/21 20:54:34;;;;;;;61.7;81;;;;;;;2.6;44.1;100860;;;;
2022/03/21 21:05:34;;;;;;;61.7;81;;;;;;;2.5;44;100860;;;;
2022/03/21 21:16:34;;;;;;;40.4;51.4;;;;;;;2.7;44.9;100860;;;;
2022/03/21 21:26:34;;;;;;;40.4;51.4;;;;;;;2.4;45;100850;;;;
2022/03/21 21:36:33;;;;;;;40.4;51.4;;;;;;;2.1;46.2;100850;;;;
2022/03/21 21:46:34;;;;;;;33.2;39.8;;;;;;;1.9;46.9;100850;;;;
2022/03/21 21:57:33;;;;;;;33.2;39.8;;;;;;;1.6;47.8;100840;;;;
2022/03/21 22:07:34;;;;;;;33.2;39.8;;;;;;;1.3;48.9;100830;;;;
2022/03/21 22:17:33;;;;;;;30.1;37.9;;;;;;;1.1;49.2;100840;;;;
2022/03/21 22:27:34;;;;;;;30.1;37.9;;;;;;;1;51.1;100830;;;;
2022/03/21 22:38:33;;;;;;;30.1;37.9;;;;;;;0.8;51.7;100830;;;;
2022/03/21 22:48:34;;;;;;;29.6;39.7;;;;;;;0.7;51.3;100820;;;;
2022/03/21 22:59:33;;;;;;;29.6;39.7;;;;;;;0.8;51.4;100820;;;;
2022/03/21 23:09:34;;;;;;;29.6;39.7;;;;;;;0.4;52.8;100830;;;;
2022/03/21 23:20:34;;;;;;;30.1;43.5;;;;;;;0.1;52.9;100830;;;;
2022/03/21 23:31:34;;;;;;;30.1;43.5;;;;;;;-0.2;53.2;100830;;;;
2022/03/21 23:42:37;;;;;;;34.3;48.8;;;;;;;-0.3;53.8;100830;;;;
2022/03/21 23:52:33;;;;;;;34.3;48.8;;;;;;;-0.5;54.8;100820;;;;
